Malin Head, Ireland
Current Conditions -  °F | °C
As of 4:50 PM on Tuesday 21 Oct 2014 (Local Time) from EGAE Reporting Station
Rain Showers Rain Showers  
Wind Chill: 40°   Ceiling: Unl
Heat Index: 48°   Visibility: 6mi
Dew Point: 39°   Wind: 24mph
Humidity: 71%   Direction: 300°WNW
Pressure: 29.97"   Gusts: 36mph
Location:  55.37°N, 7.33°W
Report Text: EGAE 211550Z 30021G31KT 9999 VCSH FEW023 SCT049 09/04 Q1015
Loading
Personal Weather Stations






























Interactive Weather Map
Tropical Storm Tracking
New forecast layout! Learn more

10-Day Weather Forecast

Advertisements
Track Severe Weather on mobile